createdAt,value
2023-04-17T00:00:10.581Z,57.03
2023-04-17T00:02:40.597Z,57.02
2023-04-17T00:05:08.528Z,57.04
2023-04-17T00:07:38.883Z,57.32
2023-04-17T00:10:10.736Z,57.29
2023-04-17T00:12:38.204Z,56.58
2023-04-17T00:15:05.646Z,57.27
2023-04-17T00:17:32.912Z,56.67
2023-04-17T00:19:59.915Z,56.80
2023-04-17T00:22:27.308Z,56.67
2023-04-17T00:24:54.430Z,57.31
2023-04-17T00:27:21.477Z,56.70
2023-04-17T00:29:48.427Z,57.01
2023-04-17T00:32:16.399Z,57.25
2023-04-17T00:34:43.318Z,57.28
2023-04-17T00:37:10.217Z,57.43
2023-04-17T00:39:37.478Z,57.70
2023-04-17T00:42:05.412Z,58.14
2023-04-17T00:44:32.482Z,57.76
2023-04-17T00:46:59.821Z,57.66
2023-04-17T00:49:28.111Z,58.41
2023-04-17T00:51:55.849Z,58.11
2023-04-17T00:54:23.625Z,58.35
2023-04-17T00:56:52.696Z,57.91
2023-04-17T00:59:20.553Z,58.40
2023-04-17T01:01:47.554Z,57.57
2023-04-17T01:04:14.566Z,58.69
2023-04-17T01:06:42.021Z,57.90
2023-04-17T01:09:12.216Z,58.81
2023-04-17T01:11:39.574Z,58.83
2023-04-17T01:14:06.512Z,58.56
2023-04-17T01:16:34.083Z,58.05
2023-04-17T01:19:01.269Z,58.78
2023-04-17T01:21:28.247Z,58.96
2023-04-17T01:23:56.084Z,59.07
2023-04-17T01:26:31.674Z,58.45
2023-04-17T01:29:00.368Z,58.35
2023-04-17T01:31:29.425Z,58.70
2023-04-17T01:33:56.505Z,58.71
2023-04-17T01:36:23.497Z,58.57
2023-04-17T01:38:50.513Z,58.89
2023-04-17T01:41:18.752Z,58.91
2023-04-17T01:43:47.666Z,59.03
2023-04-17T01:46:14.867Z,58.61
2023-04-17T01:48:41.913Z,59.36
2023-04-17T01:51:09.054Z,59.57
2023-04-17T01:53:36.646Z,59.68
2023-04-17T01:56:03.699Z,59.03
2023-04-17T01:58:31.450Z,59.18
2023-04-17T02:01:00.089Z,58.99
2023-04-17T02:03:27.777Z,59.83
2023-04-17T02:05:55.310Z,59.54
2023-04-17T02:08:22.316Z,58.43
2023-04-17T02:10:49.510Z,58.89
2023-04-17T02:13:16.750Z,58.74
2023-04-17T02:15:43.951Z,59.81
2023-04-17T02:18:11.224Z,59.22
2023-04-17T02:20:38.898Z,59.12
2023-04-17T02:23:06.870Z,59.28
2023-04-17T02:25:34.170Z,59.73
2023-04-17T02:28:01.470Z,59.02
2023-04-17T02:30:28.830Z,59.44
2023-04-17T02:32:57.711Z,59.74
2023-04-17T02:35:32.141Z,59.41
2023-04-17T02:37:59.337Z,59.37
2023-04-17T02:40:27.489Z,59.46
2023-04-17T02:43:00.752Z,59.00
2023-04-17T02:45:29.102Z,58.99
2023-04-17T02:47:55.999Z,59.52
2023-04-17T02:50:23.862Z,59.96
2023-04-17T02:53:01.572Z,59.31
2023-04-17T02:55:28.591Z,59.17
2023-04-17T02:57:55.457Z,60.55
2023-04-17T03:00:23.008Z,59.38
2023-04-17T03:02:50.414Z,59.65
2023-04-17T03:05:20.398Z,60.10
2023-04-17T03:07:47.706Z,60.52
2023-04-17T03:10:15.788Z,59.73
2023-04-17T03:12:44.388Z,59.47
2023-04-17T03:15:13.294Z,60.19
2023-04-17T03:17:40.633Z,59.70
2023-04-17T03:20:08.863Z,59.46
2023-04-17T03:22:36.738Z,60.89
2023-04-17T03:25:06.071Z,59.58
2023-04-17T03:27:41.809Z,61.22
2023-04-17T03:30:09.795Z,61.13
2023-04-17T03:32:38.173Z,60.22
2023-04-17T03:35:05.724Z,61.27
2023-04-17T03:37:34.160Z,59.99
2023-04-17T03:40:01.520Z,61.47
2023-04-17T03:42:28.816Z,60.26
2023-04-17T03:44:56.328Z,60.65
2023-04-17T03:47:24.645Z,60.60
2023-04-17T03:49:51.727Z,60.12
2023-04-17T03:52:18.914Z,61.76
2023-04-17T03:54:50.883Z,61.42
2023-04-17T03:57:17.922Z,60.46
2023-04-17T03:59:45.539Z,61.93
2023-04-17T04:02:13.059Z,61.18
2023-04-17T04:04:40.676Z,61.21
2023-04-17T04:07:12.101Z,61.65
2023-04-17T04:09:39.295Z,61.63
2023-04-17T04:12:08.512Z,61.12
2023-04-17T04:14:42.117Z,60.98
2023-04-17T04:17:10.544Z,61.13
2023-04-17T04:19:38.708Z,62.35
2023-04-17T04:22:06.828Z,61.18
2023-04-17T04:24:41.154Z,61.23
2023-04-17T04:27:09.429Z,62.56
2023-04-17T04:29:37.899Z,61.72
2023-04-17T04:32:13.696Z,61.29
2023-04-17T04:34:44.745Z,61.88
2023-04-17T04:37:15.873Z,62.77
2023-04-17T04:39:44.684Z,62.80
2023-04-17T04:42:22.225Z,63.00
2023-04-17T04:44:59.056Z,61.83
2023-04-17T04:47:29.196Z,61.73
2023-04-17T04:49:56.304Z,61.63
2023-04-17T04:52:23.734Z,62.97
2023-04-17T04:54:54.585Z,62.47
2023-04-17T04:57:21.547Z,61.92
2023-04-17T05:00:12.222Z,61.88
2023-04-17T05:03:03.257Z,63.39
2023-04-17T05:05:50.421Z,61.91
2023-04-17T05:08:39.145Z,61.91
2023-04-17T05:11:30.770Z,62.00
2023-04-17T05:14:18.333Z,62.02
2023-04-17T05:17:05.932Z,62.04
2023-04-17T05:19:53.850Z,61.87
2023-04-17T05:22:42.281Z,62.56
2023-04-17T05:25:32.411Z,62.49
2023-04-17T05:28:21.383Z,62.54
2023-04-17T05:31:11.197Z,62.14
2023-04-17T05:34:01.596Z,63.06
2023-04-17T05:36:48.654Z,63.39
2023-04-17T05:39:35.632Z,63.19
2023-04-17T05:42:22.722Z,62.37
2023-04-17T05:45:09.662Z,62.64
2023-04-17T05:47:56.879Z,62.71
2023-04-17T05:50:44.164Z,62.76
2023-04-17T05:53:32.242Z,62.94
2023-04-17T05:56:19.849Z,62.27
2023-04-17T05:59:06.833Z,61.67
2023-04-17T06:01:54.936Z,61.39
2023-04-17T06:04:42.908Z,61.54
2023-04-17T06:07:30.463Z,61.88
2023-04-17T06:10:17.445Z,62.67
2023-04-17T06:13:04.270Z,61.93
2023-04-17T06:15:51.458Z,61.72
2023-04-17T06:18:39.006Z,61.50
2023-04-17T06:21:27.529Z,61.96
2023-04-17T06:24:14.383Z,60.91
2023-04-17T06:27:06.030Z,60.77
2023-04-17T06:29:52.904Z,60.74
2023-04-17T06:32:40.629Z,61.53
2023-04-17T06:35:28.087Z,61.56
2023-04-17T06:38:22.022Z,60.70
2023-04-17T06:41:09.149Z,60.69
2023-04-17T06:43:57.942Z,60.10
2023-04-17T06:46:56.034Z,60.63
2023-04-17T06:49:43.919Z,59.77
2023-04-17T06:52:32.448Z,59.97
2023-04-17T06:55:19.551Z,60.40
2023-04-17T06:58:06.447Z,60.04
2023-04-17T07:00:53.381Z,59.54
2023-04-17T07:03:40.460Z,59.99
2023-04-17T07:06:28.127Z,59.07
2023-04-17T07:09:15.021Z,58.79
2023-04-17T07:12:02.204Z,58.67
2023-04-17T07:14:49.358Z,58.58
2023-04-17T07:17:36.502Z,58.39
2023-04-17T07:20:24.187Z,58.03
2023-04-17T07:23:11.270Z,57.68
2023-04-17T07:25:58.116Z,57.22
2023-04-17T07:28:45.299Z,57.32
2023-04-17T07:31:32.303Z,57.12
2023-04-17T07:34:19.481Z,56.47
2023-04-17T07:37:06.372Z,56.91
2023-04-17T07:39:53.531Z,56.58
2023-04-17T07:42:40.495Z,56.19
2023-04-17T07:45:27.985Z,55.85
2023-04-17T07:48:14.887Z,55.36
2023-04-17T07:51:01.927Z,54.95
2023-04-17T07:53:48.856Z,54.75
2023-04-17T07:56:35.976Z,54.95
2023-04-17T07:59:22.810Z,54.50
2023-04-17T08:02:10.285Z,54.04
2023-04-17T08:04:57.249Z,53.83
2023-04-17T08:07:44.301Z,53.65
2023-04-17T08:10:31.218Z,53.49
2023-04-17T08:13:18.460Z,53.20
2023-04-17T08:16:05.455Z,52.92
2023-04-17T08:18:52.591Z,52.96
2023-04-17T08:21:39.466Z,52.60
2023-04-17T08:24:26.784Z,52.52
2023-04-17T08:27:13.745Z,51.96
2023-04-17T08:30:00.741Z,51.67
2023-04-17T08:32:48.078Z,52.24
2023-04-17T08:35:36.001Z,52.22
2023-04-17T08:38:22.862Z,51.71
2023-04-17T08:41:13.383Z,50.99
2023-04-17T08:44:00.587Z,51.19
2023-04-17T08:46:48.514Z,50.52
2023-04-17T08:49:35.677Z,51.04
2023-04-17T08:52:24.314Z,50.67
2023-04-17T08:55:11.201Z,50.38
2023-04-17T08:58:16.424Z,50.71
2023-04-17T09:01:04.991Z,49.55
2023-04-17T09:04:00.534Z,49.49
2023-04-17T09:06:47.653Z,49.87
2023-04-17T09:09:34.801Z,49.21
2023-04-17T09:12:30.972Z,49.41
2023-04-17T09:15:18.689Z,49.31
2023-04-17T09:18:06.675Z,49.04
2023-04-17T09:21:08.531Z,48.26
2023-04-17T09:24:12.942Z,48.95
2023-04-17T09:26:59.991Z,47.72
2023-04-17T09:29:46.869Z,48.13
2023-04-17T09:32:37.084Z,48.56
2023-04-17T09:35:24.783Z,48.03
2023-04-17T09:38:14.187Z,47.22
2023-04-17T09:41:02.117Z,46.94
2023-04-17T09:44:01.462Z,47.08
2023-04-17T09:46:59.102Z,46.43
2023-04-17T09:49:58.044Z,45.12
2023-04-17T09:52:44.872Z,45.25
2023-04-17T09:55:32.361Z,45.37
2023-04-17T09:58:25.918Z,44.78
2023-04-17T10:01:13.298Z,44.66
2023-04-17T10:04:01.359Z,43.52
2023-04-17T10:06:50.422Z,44.14
2023-04-17T10:09:37.270Z,42.63
2023-04-17T10:12:25.659Z,43.32
2023-04-17T10:15:12.746Z,42.94
2023-04-17T10:17:59.841Z,42.92
2023-04-17T10:20:46.662Z,42.44
2023-04-17T10:23:51.029Z,42.05
2023-04-17T10:26:49.720Z,41.64
2023-04-17T10:29:36.728Z,41.35
2023-04-17T10:32:29.654Z,41.09
2023-04-17T10:35:40.933Z,40.92
2023-04-17T10:38:28.685Z,40.65
2023-04-17T10:41:15.890Z,40.41
2023-04-17T10:44:04.532Z,39.83
2023-04-17T10:46:51.677Z,39.60
2023-04-17T10:49:41.555Z,39.60
2023-04-17T10:53:00.360Z,39.39
2023-04-17T10:55:47.876Z,38.81
2023-04-17T10:58:34.835Z,38.69
2023-04-17T11:01:30.357Z,38.82
2023-04-17T11:04:21.415Z,37.47
2023-04-17T11:07:08.720Z,38.03
2023-04-17T11:09:55.722Z,37.37
2023-04-17T11:12:42.562Z,37.50
2023-04-17T11:15:29.780Z,37.00
2023-04-17T11:18:17.809Z,37.24
2023-04-17T11:21:04.997Z,36.51
2023-04-17T11:23:54.410Z,36.47
2023-04-17T11:26:41.469Z,36.55
2023-04-17T11:29:54.647Z,35.77
2023-04-17T11:32:41.816Z,35.88
2023-04-17T11:35:29.877Z,35.22
2023-04-17T11:38:33.382Z,36.02
2023-04-17T11:41:22.192Z,35.59
2023-04-17T11:44:11.564Z,34.70
2023-04-17T11:46:59.048Z,35.04
2023-04-17T11:49:50.990Z,35.42
2023-04-17T11:52:38.172Z,35.29
2023-04-17T11:55:28.508Z,35.21
2023-04-17T11:58:16.267Z,35.39
2023-04-17T12:01:03.228Z,35.03
2023-04-17T12:03:54.624Z,35.27
2023-04-17T12:06:42.310Z,35.71
2023-04-17T12:09:39.127Z,35.76
2023-04-17T12:12:27.245Z,35.68
2023-04-17T12:15:14.042Z,35.49
2023-04-17T12:18:01.094Z,35.85
2023-04-17T12:20:47.981Z,35.59
2023-04-17T12:23:35.018Z,36.13
2023-04-17T12:26:21.974Z,35.98
2023-04-17T12:29:09.023Z,35.65
2023-04-17T12:31:55.848Z,35.86
2023-04-17T12:34:42.777Z,35.46
2023-04-17T12:37:29.610Z,35.78
2023-04-17T12:40:16.646Z,35.87
2023-04-17T12:43:03.673Z,35.89
2023-04-17T12:45:51.119Z,36.26
2023-04-17T12:48:38.173Z,36.55
2023-04-17T12:51:25.269Z,37.23
2023-04-17T12:54:12.354Z,36.83
2023-04-17T12:56:59.358Z,37.91
2023-04-17T12:59:46.278Z,38.30
2023-04-17T13:02:33.390Z,37.84
2023-04-17T13:05:20.484Z,38.11
2023-04-17T13:08:07.456Z,38.56
2023-04-17T13:10:54.441Z,39.17
2023-04-17T13:13:41.326Z,38.87
2023-04-17T13:16:29.789Z,39.31
2023-04-17T13:19:16.800Z,39.76
2023-04-17T13:22:03.840Z,39.46
2023-04-17T13:24:51.069Z,39.45
2023-04-17T13:27:38.135Z,40.21
2023-04-17T13:30:25.699Z,40.03
2023-04-17T13:33:12.623Z,40.03
2023-04-17T13:35:59.611Z,41.07
2023-04-17T13:38:46.571Z,40.16
2023-04-17T13:41:33.445Z,40.34
2023-04-17T13:44:20.348Z,40.35
2023-04-17T13:47:07.264Z,40.98
2023-04-17T13:49:54.243Z,40.57
2023-04-17T13:52:41.122Z,40.20
2023-04-17T13:55:28.647Z,40.54
2023-04-17T13:58:15.681Z,40.40
2023-04-17T14:01:02.931Z,40.03
2023-04-17T14:03:52.945Z,40.99
2023-04-17T14:06:40.136Z,40.88
2023-04-17T14:09:27.256Z,41.23
2023-04-17T14:12:14.385Z,41.15
2023-04-17T14:15:01.463Z,39.93
2023-04-17T14:17:48.924Z,40.39
2023-04-17T14:20:35.846Z,39.91
2023-04-17T14:23:22.767Z,40.06
2023-04-17T14:26:09.729Z,40.00
2023-04-17T14:28:56.810Z,39.93
2023-04-17T14:31:43.766Z,40.28
2023-04-17T14:34:30.963Z,40.29
2023-04-17T14:37:18.197Z,39.67
2023-04-17T14:40:05.144Z,40.19
2023-04-17T14:42:54.388Z,40.76
2023-04-17T14:45:41.805Z,40.88
2023-04-17T14:48:29.040Z,40.83
2023-04-17T14:51:17.000Z,40.47
2023-04-17T14:54:04.084Z,39.88
2023-04-17T14:56:51.061Z,40.52
2023-04-17T14:59:38.276Z,40.51
2023-04-17T15:02:28.100Z,40.09
2023-04-17T15:05:15.257Z,40.00
2023-04-17T15:08:02.233Z,40.37
2023-04-17T15:10:51.596Z,40.12
2023-04-17T15:13:38.671Z,40.16
2023-04-17T15:16:25.877Z,40.37
2023-04-17T15:19:12.998Z,40.03
2023-04-17T15:22:00.033Z,40.05
2023-04-17T15:24:47.109Z,39.75
2023-04-17T15:27:34.083Z,39.75
2023-04-17T15:30:21.110Z,39.60
2023-04-17T15:33:09.855Z,40.83
2023-04-17T15:35:57.733Z,39.95
2023-04-17T15:38:45.716Z,39.54
2023-04-17T15:41:33.029Z,40.12
2023-04-17T15:44:19.946Z,39.73
2023-04-17T15:47:06.975Z,39.32
2023-04-17T15:49:54.326Z,39.84
2023-04-17T15:52:41.441Z,39.56
2023-04-17T15:55:28.861Z,39.81
2023-04-17T15:58:16.036Z,39.15
2023-04-17T16:01:02.915Z,38.97
2023-04-17T16:03:50.107Z,38.75
2023-04-17T16:06:37.239Z,39.08
2023-04-17T16:09:24.168Z,39.22
2023-04-17T16:12:11.371Z,38.80
2023-04-17T16:14:58.566Z,38.94
2023-04-17T16:17:45.855Z,38.84
2023-04-17T16:20:33.355Z,38.74
2023-04-17T16:23:20.275Z,38.44
2023-04-17T16:26:07.116Z,38.39
2023-04-17T16:28:54.930Z,38.44
2023-04-17T16:31:42.111Z,38.16
2023-04-17T16:34:29.112Z,39.03
2023-04-17T16:37:16.065Z,39.33
2023-04-17T16:40:03.128Z,38.81
2023-04-17T16:42:50.476Z,38.96
2023-04-17T16:45:37.513Z,39.56
2023-04-17T16:48:24.626Z,39.71
2023-04-17T16:51:11.740Z,39.06
2023-04-17T16:53:58.772Z,39.74
2023-04-17T16:56:45.734Z,39.48
2023-04-17T16:59:32.667Z,39.64
2023-04-17T17:02:19.703Z,39.11
2023-04-17T17:05:06.830Z,39.88
2023-04-17T17:07:53.791Z,39.95
2023-04-17T17:10:40.666Z,40.14
2023-04-17T17:13:27.603Z,39.89
2023-04-17T17:16:14.572Z,39.62
2023-04-17T17:19:01.670Z,40.02
2023-04-17T17:21:48.633Z,40.74
2023-04-17T17:24:35.603Z,40.69
2023-04-17T17:27:22.477Z,40.72
2023-04-17T17:30:09.448Z,40.83
2023-04-17T17:32:56.516Z,40.94
2023-04-17T17:35:43.721Z,42.09
2023-04-17T17:38:30.595Z,41.44
2023-04-17T17:41:17.503Z,42.42
2023-04-17T17:44:04.431Z,41.54
2023-04-17T17:46:51.427Z,42.14
2023-04-17T17:49:38.455Z,42.12
2023-04-17T17:52:25.615Z,42.14
2023-04-17T17:55:12.457Z,42.93
2023-04-17T17:57:59.391Z,42.09
2023-04-17T18:00:46.316Z,43.27
2023-04-17T18:03:33.514Z,42.78
2023-04-17T18:06:21.443Z,43.49
2023-04-17T18:09:08.538Z,43.94
2023-04-17T18:11:56.888Z,43.57
2023-04-17T18:14:43.831Z,44.18
2023-04-17T18:17:30.713Z,43.75
2023-04-17T18:20:17.800Z,44.42
2023-04-17T18:23:04.777Z,43.84
2023-04-17T18:25:51.881Z,44.87
2023-04-17T18:28:39.000Z,45.10
2023-04-17T18:31:25.857Z,44.56
2023-04-17T18:34:13.146Z,44.69
2023-04-17T18:37:00.448Z,44.95
2023-04-17T18:39:47.498Z,45.28
2023-04-17T18:42:34.412Z,45.37
2023-04-17T18:45:21.505Z,45.77
2023-04-17T18:48:08.445Z,46.00
2023-04-17T18:50:55.491Z,46.06
2023-04-17T18:53:42.304Z,45.95
2023-04-17T18:56:29.243Z,46.61
2023-04-17T18:59:16.117Z,46.81
2023-04-17T19:02:03.230Z,46.94
2023-04-17T19:04:50.267Z,47.26
2023-04-17T19:07:37.333Z,47.17
2023-04-17T19:10:24.616Z,47.70
2023-04-17T19:13:12.092Z,47.72
2023-04-17T19:15:59.126Z,48.09
2023-04-17T19:18:46.141Z,48.58
2023-04-17T19:21:33.119Z,48.60
2023-04-17T19:24:20.174Z,48.61
2023-04-17T19:27:07.058Z,49.07
2023-04-17T19:29:54.531Z,49.43
2023-04-17T19:32:41.601Z,49.16
2023-04-17T19:35:29.055Z,49.73
2023-04-17T19:38:17.213Z,49.53
2023-04-17T19:41:40.163Z,50.18
2023-04-17T19:44:27.962Z,49.63
2023-04-17T19:47:17.089Z,49.81
2023-04-17T19:50:04.006Z,50.19
2023-04-17T19:52:51.048Z,50.60
2023-04-17T19:55:38.073Z,50.80
2023-04-17T19:58:21.098Z,50.70
2023-04-17T20:00:48.064Z,51.43
2023-04-17T20:03:15.382Z,51.19
2023-04-17T20:05:43.078Z,51.76
2023-04-17T20:08:10.708Z,51.65
2023-04-17T20:10:37.662Z,52.41
2023-04-17T20:13:04.664Z,51.80
2023-04-17T20:15:31.757Z,51.87
2023-04-17T20:17:58.897Z,52.30
2023-04-17T20:20:25.970Z,52.97
2023-04-17T20:22:53.044Z,52.26
2023-04-17T20:25:19.935Z,52.89
2023-04-17T20:28:06.892Z,52.97
2023-04-17T20:30:53.943Z,53.16
2023-04-17T20:33:40.925Z,53.02
2023-04-17T20:36:29.932Z,52.92
2023-04-17T20:39:16.993Z,53.76
2023-04-17T20:42:03.856Z,54.18
2023-04-17T20:44:51.908Z,54.41
2023-04-17T20:47:43.497Z,53.69
2023-04-17T20:50:40.365Z,53.96
2023-04-17T20:53:27.237Z,54.90
2023-04-17T20:56:14.219Z,53.86
2023-04-17T20:59:01.074Z,55.25
2023-04-17T21:01:48.176Z,55.25
2023-04-17T21:04:35.091Z,55.22
2023-04-17T21:07:22.507Z,55.78
2023-04-17T21:10:10.106Z,54.63
2023-04-17T21:12:57.199Z,55.97
2023-04-17T21:15:44.111Z,55.67
2023-04-17T21:18:31.167Z,56.04
2023-04-17T21:21:18.110Z,55.23
2023-04-17T21:24:05.146Z,55.02
2023-04-17T21:26:52.084Z,55.44
2023-04-17T21:29:39.058Z,55.25
2023-04-17T21:32:26.098Z,56.60
2023-04-17T21:35:13.292Z,55.47
2023-04-17T21:38:00.198Z,56.41
2023-04-17T21:43:37.017Z,55.70
2023-04-17T21:46:24.174Z,55.99
2023-04-17T21:49:11.217Z,56.44
2023-04-17T21:51:58.173Z,57.40
2023-04-17T21:54:45.137Z,56.38
2023-04-17T21:57:32.106Z,57.03
2023-04-17T22:00:19.529Z,56.77
2023-04-17T22:03:06.618Z,56.71
2023-04-17T22:05:53.668Z,56.65
2023-04-17T22:08:40.622Z,57.36
2023-04-17T22:11:27.741Z,56.98
2023-04-17T22:14:15.130Z,57.28
2023-04-17T22:17:02.721Z,58.01
2023-04-17T22:19:49.694Z,57.51
2023-04-17T22:22:36.632Z,57.87
2023-04-17T22:25:23.776Z,57.19
2023-04-17T22:28:10.697Z,56.97
2023-04-17T22:30:57.573Z,57.95
2023-04-17T22:33:44.573Z,57.49
2023-04-17T22:36:31.785Z,58.61
2023-04-17T22:39:18.762Z,57.43
2023-04-17T22:42:05.838Z,57.68
2023-04-17T22:44:52.923Z,58.18
2023-04-17T22:47:41.764Z,57.53
2023-04-17T22:50:28.889Z,57.71
2023-04-17T22:53:16.777Z,57.76
2023-04-17T22:56:03.686Z,58.06
2023-04-17T22:58:52.338Z,58.15
2023-04-17T23:01:39.288Z,58.67
2023-04-17T23:04:26.373Z,58.71
2023-04-17T23:07:13.294Z,58.89
2023-04-17T23:10:00.216Z,58.44
2023-04-17T23:12:47.192Z,59.08
2023-04-17T23:15:34.494Z,59.57
2023-04-17T23:18:21.347Z,59.32
2023-04-17T23:21:08.535Z,58.50
2023-04-17T23:23:55.413Z,58.67
2023-04-17T23:26:42.383Z,58.60
2023-04-17T23:29:29.258Z,59.37
2023-04-17T23:32:16.277Z,59.75
2023-04-17T23:35:03.150Z,59.92
2023-04-17T23:37:50.165Z,60.21
2023-04-17T23:40:37.326Z,58.94
2023-04-17T23:43:24.324Z,59.23
2023-04-17T23:46:11.214Z,59.85
2023-04-17T23:48:58.314Z,59.11
2023-04-17T23:51:45.495Z,60.21
2023-04-17T23:54:32.773Z,59.49
2023-04-17T23:57:19.612Z,60.62
